FOLSOM LAKE (FOL)

Elevation: 466' · AMERICAN R basin · Operator: US Bureau of Reclamation

Provisional data, subject to change.
Query executed Tuesday at 13:34:00   clock

Select a sensor type for a plot of data.
Note: Reservoir Flows are daily averages.

Earlier

Date RES ELE    STORAGE    RES CHG    TOC STO    ABV TOC    OUTFLOW    INFLOW    EVAP    FNF    RIV REL    PPT INC    SPILL    DC PUMP    DIS PWR   
 FEET   AF   AF   AF   AF   CFS   CFS   CFS   CFS   CFS   INCHES   CFS   CFS   CFS  
03/23/2015 425.40 573336 -344 681762 -108426 908 767 32 1089 e 0 0.11 0 93 815
03/24/2015 425.41 573422 86 684143 -110721 900 975 32 1451 0 0.00 0 84 816
03/25/2015 425.41 573422 0 686524 -113102 719 751 32 1242 0 0.00 0 84 635
03/26/2015 425.43 573594 172 688905 -115311 580 699 32 1472 0 0.00 0 87 493
03/27/2015 425.39 573250 -344 -- -- 886 745 32 1203 0 0.00 0 89 797
03/28/2015 425.37 573078 -172 -- -- 947 892 32 1340 243 0.00 0 101 603
03/29/2015 425.32 572647 -431 696048 -- 811 626 32 1074 397 0.00 0 107 307
03/30/2015 425.25 572045 -602 698429 -- 785 513 32 1029 258 0.00 0 112 415
03/31/2015 425.19 571528 -517 700810 -- 769 540 32 928 253 0.00 0 108 408
04/01/2015 425.16 571270 -258 703191 -131921 622 524 32 1146 253 0.00 0 101 268
04/02/2015 425.13 571012 -258 705572 -134560 620 522 32 986 253 0.00 0 99 268
04/03/2015 425.09 570668 -344 707952 -- 658 517 32 629 253 0.00 0 102 303
04/04/2015 425.09 570668 0 710333 -- 652 684 32 887 e 253 0.00 0 105 294
04/05/2015 425.10 570754 86 712714 -141960 677 734 14 887 e 254 0.08 0 102 321
04/06/2015 425.16 571270 516 715095 -143825 495 781 26 893 127 0.00 0 88 280
04/07/2015 425.27 572217 947 717476 -145259 490 984 17 1755 0 0.77 0 72 418
04/08/2015 425.30 572475 258 719857 -147382 570 732 32 1142 0 0.00 0 70 500
04/09/2015 425.26 572131 -344 722238 -150107 838 702 37 1121 0 0.00 0 65 773
04/10/2015 425.29 572389 258 724619 -- 587 766 49 1196 0 0.00 0 73 514
04/11/2015 425.31 572561 172 727000 -- 809 945 49 1324 0 0.00 0 84 725
04/12/2015 425.32 572647 -- 729381 -- 887 973 43 1138 e 0 0.00 0 90 797
04/13/2015 425.35 572905 258 731762 -158857 767 949 52 1138 e 0 0.00 0 95 672
04/14/2015 425.33 572733 -172 734143 -161410 655 628 60 1137 e 0 0.00 0 97 558
04/15/2015 425.41 573422 689 736524 -163102 535 942 60 1137 e 0 0.00 0 99 436
04/16/2015 425.34 572819 -603 738905 -166086 839 581 46 1137 e 0 0.00 0 99 740
04/17/2015 425.30 572475 -344 741286 -- 682 561 52 776 0 0.00 0 98 584
04/18/2015 425.28 572303 -172 743667 -- 855 808 40 734 0 0.00 0 103 752
04/19/2015 425.29 572389 86 746048 -173659 756 799 0 880 0 0.00 0 118 638
04/20/2015 425.28 572303 -86 748429 -176126 855 867 55 1267 0 0.00 0 118 737
04/21/2015 -- -- -- -- -- -- -- -- -- -- -- -- -- --

Later | Latest

Warning! This data is preliminary and subject to revision.

Show FOL Map | Plot FOL Data | 1 Month FOL Data | Real-Time FOL Data | FOL Info